الصفحة الرئيسية
METAR-TAF:

METAR-TAF

مطار :

قاعدة جوية عسكرية

Tulln an der Donau, النمسا

دائرة عرض: 48-19N, خط طول: 016-07E, ارتفاع: 175 متر

METAR: مفقودة

زمن: 21:59 (19:59 UTC)

توقعات

تاريخ ووقت الإصدار 8ساعات و 44 دقيقة قبل الساعة 11:15UTC
التوقعات صالحة من02 الساعة 12 UTC إلى 02 الساعة 21 UTC
ريح 8 عقدة من الجنوب الغربي
الرؤية 10 كم أو أكثر
غيوم قليلة على ارتفاع 3000 قدم
غيوم مفككة على ارتفاع 30000 قدم
مؤقت
من 02 الساعة 12 UTC إلى 02 الساعة 21 UTC
غيوم مفككة على ارتفاع 3000 قدم
غيوم قليلة على ارتفاع 4000 قدم, مزنة ركامية.
عاصفة رعدية, مطر

TAF: LOXT 021115Z 0212/0221 23008KT 9999 FEW030 BKN300 TEMPO 0212/0221 TSRA BKN030 FEW040CB

أرصاد الطقس والتوقعات من أكثر من 4000 مطار (تقارير الطقس للمطار METAR والتنبؤ بالطقس بالمطارTAF).

المحطات المتاحة هي النقط الصفراء والحمراء على الخريطة.

حرك المؤشر فوق النقطة لمعرفة اسم المحطة.

ثم انقر لمعرفة أرصاد وتوقعات الطقس.

لتغيير الخارطة: اضغط على الأزرار الخضراء مع رمز الصليب الأسود للتكبير. على الزر الأخضر مع شرطة للتصغير، أو على الأسهم الخضراء للخرائط المجاورة.


METAR-TAF: